Time;durP1;ratioP1;P1;durP2;ratioP2;P2;SDS_P1;SDS_P2;PMS_P1;PMS_P2;Temp;Humidity;BMP_temperature;BMP_pressure;BME280_temperature;BME280_humidity;BME280_pressure;Samples;Min_cycle;Max_cycle;Signal;HPM_P1;HPM_P2
2022/05/06 00:00:11;;;;;;;;;;;;;;;15.48;70.35;100498.56;5003318;28;20444;-82
2022/05/06 00:02:43;;;;;;;19.15;9.73;;;;;;;15.54;69.84;100495.28;5001598;28;19928;-85
2022/05/06 00:05:13;;;;;;;17.00;9.43;;;;;;;15.58;69.69;100501.19;4985348;28;20113;-83
2022/05/06 00:07:39;;;;;;;16.77;10.25;;;;;;;15.58;69.93;100503.88;4985007;28;20357;-82
2022/05/06 00:10:07;;;;;;;16.00;8.80;;;;;;;15.55;70.03;100502.34;4987256;28;20045;-85
2022/05/06 00:12:34;;;;;;;17.15;9.77;;;;;;;15.58;69.86;100502.03;4987037;28;20624;-85
2022/05/06 00:15:04;;;;;;;15.02;9.02;;;;;;;15.54;69.94;100503.31;4968564;28;20050;-85
2022/05/06 00:17:31;;;;;;;15.43;8.23;;;;;;;15.52;69.98;100499.09;4997155;28;20057;-83
2022/05/06 00:19:58;;;;;;;16.35;8.77;;;;;;;15.54;69.97;100500.63;4988518;28;20050;-85
2022/05/06 00:22:25;;;;;;;13.23;7.75;;;;;;;15.54;69.83;100497.13;4972367;28;20120;-85
2022/05/06 00:24:53;;;;;;;17.95;8.43;;;;;;;15.52;69.80;100501.78;4985877;28;20110;-83
2022/05/06 00:27:20;;;;;;;16.40;8.75;;;;;;;15.51;69.96;100503.63;4986233;28;20046;-85
2022/05/06 00:29:46;;;;;;;15.20;8.25;;;;;;;15.50;70.09;100503.78;4972668;28;20521;-85
2022/05/06 00:32:15;;;;;;;14.80;8.05;;;;;;;15.48;69.89;100500.41;5000272;28;20421;-84
2022/05/06 00:34:42;;;;;;;16.85;8.10;;;;;;;15.48;70.05;100500.41;4985501;28;20549;-86
2022/05/06 00:38:04;;;;;;;17.35;8.52;;;;;;;15.43;70.11;100494.69;4952869;28;20137;-85
2022/05/06 00:40:31;;;;;;;14.40;8.25;;;;;;;15.46;69.93;100500.56;4922917;28;20049;-85
2022/05/06 00:42:57;;;;;;;15.98;8.07;;;;;;;15.46;70.01;100497.03;4965337;28;20081;-86
2022/05/06 00:45:34;;;;;;;12.55;8.77;;;;;;;15.44;69.74;100499.03;4946858;28;20051;-86
2022/05/06 00:48:01;;;;;;;14.80;8.30;;;;;;;15.45;69.63;100498.06;4972353;28;20466;-85
2022/05/06 00:50:28;;;;;;;13.63;7.38;;;;;;;15.43;69.77;100497.34;4970296;28;20477;-85
2022/05/06 00:52:54;;;;;;;16.52;7.93;;;;;;;15.41;69.78;100501.00;4984367;28;20402;-85
2022/05/06 00:55:22;;;;;;;13.70;7.80;;;;;;;15.40;69.88;100499.34;4999143;28;20057;-85
2022/05/06 00:57:49;;;;;;;16.85;8.15;;;;;;;15.40;69.79;100495.81;4970469;28;20104;-85
2022/05/06 01:00:19;;;;;;;15.63;7.90;;;;;;;15.38;69.97;100500.47;4985789;28;20056;-86
2022/05/06 01:02:47;;;;;;;18.67;8.18;;;;;;;15.39;69.94;100494.13;4968181;28;20108;-86
2022/05/06 01:05:15;;;;;;;17.70;8.10;;;;;;;15.38;70.15;100501.31;4983335;28;20058;-86
2022/05/06 01:07:45;;;;;;;15.15;8.00;;;;;;;15.36;69.94;100500.63;4971897;28;20046;-87
2022/05/06 01:10:12;;;;;;;21.27;9.43;;;;;;;15.37;69.98;100499.63;4997398;28;20046;-85
2022/05/06 01:12:39;;;;;;;13.43;8.70;;;;;;;15.37;69.98;100501.47;4986891;28;20057;-86
2022/05/06 01:15:23;;;;;;;15.23;7.55;;;;;;;15.32;70.15;100498.41;4972718;28;20112;-87
2022/05/06 01:17:56;;;;;;;20.75;8.02;;;;;;;15.35;70.17;100501.63;4967192;28;20058;-86
2022/05/06 01:20:23;;;;;;;15.32;8.57;;;;;;;15.36;69.94;100507.81;4982552;28;20034;-87
2022/05/06 01:22:52;;;;;;;17.10;8.65;;;;;;;15.35;69.97;100504.28;4981237;28;20053;-86
2022/05/06 01:25:23;;;;;;;12.48;8.35;;;;;;;15.34;70.03;100505.31;4987832;28;20042;-89
2022/05/06 01:28:04;;;;;;;18.67;8.02;;;;;;;15.29;70.33;100499.56;5000597;28;20043;-87
2022/05/06 01:31:00;;;;;;;13.10;7.70;;;;;;;15.27;70.28;100511.41;4956480;28;20125;-84
2022/05/06 01:33:29;;;;;;;15.15;7.75;;;;;;;15.31;69.98;100502.91;4967311;28;20057;-85
2022/05/06 01:36:01;;;;;;;12.43;7.28;;;;;;;15.29;69.92;100512.06;4994125;28;20057;-85
2022/05/06 01:38:28;;;;;;;15.63;8.45;;;;;;;15.30;69.66;100508.41;4989747;28;20466;-85
2022/05/06 01:40:59;;;;;;;18.73;8.50;;;;;;;15.29;70.01;100512.94;4992499;28;20134;-85
2022/05/06 01:43:42;;;;;;;21.50;8.20;;;;;;;15.25;70.27;100519.56;4998459;28;20065;-84
2022/05/06 01:46:21;;;;;;;16.63;9.50;;;;;;;15.21;70.53;100512.81;4977030;28;20042;-85
2022/05/06 01:48:55;;;;;;;13.70;8.20;;;;;;;15.28;70.05;100521.09;4923225;28;20046;-85
2022/05/06 01:51:26;;;;;;;16.58;7.72;;;;;;;15.25;70.26;100511.53;4972983;28;20065;-84
2022/05/06 01:53:54;;;;;;;11.35;7.53;;;;;;;15.26;69.79;100517.72;4965290;28;20049;-84
2022/05/06 01:56:21;;;;;;;13.80;7.32;;;;;;;15.25;69.97;100514.22;4998566;28;20046;-85
2022/05/06 01:58:49;;;;;;;15.52;8.20;;;;;;;15.24;70.02;100511.69;4972848;28;20112;-85
2022/05/06 02:01:17;;;;;;;15.27;8.10;;;;;;;15.23;70.04;100515.34;5008072;28;20049;-85
2022/05/06 02:06:34;;;;;;;12.20;7.35;;;;;;;15.21;69.87;100510.13;4924792;28;20042;-85
2022/05/06 02:09:10;;;;;;;14.68;9.73;;;;;;;15.18;69.99;100507.78;4951057;28;20046;-85
2022/05/06 02:11:57;;;;;;;12.88;7.88;;;;;;;15.17;69.70;100509.59;4959051;28;20167;-84
2022/05/06 02:14:35;;;;;;;9.05;7.00;;;;;;;15.16;69.83;100509.75;4972269;28;20046;-87
2022/05/06 02:17:21;;;;;;;20.63;8.38;;;;;;;15.16;69.85;100505.25;4937381;28;20057;-85
2022/05/06 02:20:17;;;;;;;16.70;7.55;;;;;;;15.15;69.70;100508.06;4947203;28;20047;-85
2022/05/06 02:23:07;;;;;;;18.60;7.80;;;;;;;15.14;69.58;100511.75;4940764;28;20062;-85
2022/05/06 02:25:43;;;;;;;13.27;7.50;;;;;;;15.11;69.56;100507.53;4987101;28;20505;-85
2022/05/06 02:28:17;;;;;;;21.02;8.18;;;;;;;15.11;69.75;100509.34;4982267;28;20046;-85
2022/05/06 02:33:44;;;;;;;19.35;7.72;;;;;;;15.11;69.43;100517.38;4925020;28;20133;-85
2022/05/06 02:36:23;;;;;;;16.60;7.82;;;;;;;15.06;69.42;100512.50;4976076;28;20519;-86
2022/05/06 02:38:50;;;;;;;24.95;7.97;;;;;;;15.05;69.29;100520.66;4973269;28;20406;-84
2022/05/06 02:41:17;;;;;;;15.20;8.18;;;;;;;15.04;69.47;100525.16;4978572;28;20505;-85
2022/05/06 02:43:53;;;;;;;13.68;7.85;;;;;;;15.02;69.38;100519.13;4986691;28;20050;-85
2022/05/06 02:46:21;;;;;;;12.52;7.20;;;;;;;14.99;69.47;100522.09;4956120;28;20058;-85
2022/05/06 02:48:48;;;;;;;13.60;7.78;;;;;;;14.98;69.39;100512.38;4987335;28;20128;-85
2022/05/06 02:51:18;;;;;;;14.55;8.68;;;;;;;14.97;69.23;100514.22;4988347;28;20042;-86
2022/05/06 02:53:46;;;;;;;10.82;6.85;;;;;;;14.96;69.41;100515.22;5001600;28;20700;-86
2022/05/06 02:56:16;;;;;;;13.15;7.75;;;;;;;14.94;69.09;100513.66;4982085;28;20517;-85
2022/05/06 02:58:48;;;;;;;17.70;7.68;;;;;;;14.94;69.24;100516.34;4996889;28;20140;-86
2022/05/06 03:01:15;;;;;;;16.83;8.15;;;;;;;14.91;69.11;100516.66;4973380;28;20062;-86
2022/05/06 03:03:45;;;;;;;14.18;7.43;;;;;;;14.92;69.00;100516.47;4983133;28;20451;-86
2022/05/06 03:06:17;;;;;;;14.23;7.05;;;;;;;14.91;69.04;100525.50;4969976;28;20057;-86
2022/05/06 03:08:45;;;;;;;11.82;6.88;;;;;;;14.90;68.84;100514.94;4971244;28;20069;-85
2022/05/06 03:11:44;;;;;;;14.95;7.25;;;;;;;14.80;68.61;100519.47;4970016;28;20138;-88
2022/05/06 03:14:21;;;;;;;13.90;7.30;;;;;;;14.85;68.57;100522.56;4938632;28;20405;-85
2022/05/06 03:17:07;;;;;;;14.40;7.22;;;;;;;14.82;68.44;100515.69;4956472;28;20687;-85
2022/05/06 03:19:34;;;;;;;15.73;7.97;;;;;;;14.82;68.62;100517.50;4952609;28;20046;-79
2022/05/06 03:22:01;;;;;;;15.27;7.93;;;;;;;14.81;68.75;100527.38;4966301;28;20061;-78
2022/05/06 03:24:28;;;;;;;15.25;8.05;;;;;;;14.80;68.65;100516.81;4966090;28;20035;-79
2022/05/06 03:26:55;;;;;;;13.30;8.13;;;;;;;14.77;68.82;100516.09;4965142;28;20053;-78
2022/05/06 03:29:22;;;;;;;21.10;7.75;;;;;;;14.75;68.60;100520.75;4964898;28;20057;-78
2022/05/06 03:31:49;;;;;;;12.13;7.15;;;;;;;14.74;68.54;100515.56;4959575;28;20052;-78
2022/05/06 03:34:17;;;;;;;19.92;7.78;;;;;;;14.75;68.56;100522.59;4950846;28;20077;-78
2022/05/06 03:36:44;;;;;;;13.63;7.55;;;;;;;14.75;68.77;100522.59;4981865;28;20100;-78
2022/05/06 03:39:13;;;;;;;15.32;7.85;;;;;;;14.74;68.52;100518.25;4949412;28;20126;-78
2022/05/06 03:41:55;;;;;;;21.75;8.40;;;;;;;14.72;68.51;100522.88;4977868;28;20046;-78
2022/05/06 03:44:23;;;;;;;14.60;7.85;;;;;;;14.72;68.51;100522.88;4959347;28;20647;-78
2022/05/06 03:46:52;;;;;;;12.15;8.18;;;;;;;14.71;68.57;100514.03;4984953;28;20046;-78
2022/05/06 03:49:27;;;;;;;13.93;8.20;;;;;;;14.68;68.60;100522.34;4983291;28;20054;-78
2022/05/06 03:51:56;;;;;;;15.80;7.57;;;;;;;14.67;68.47;100520.66;4952173;28;20057;-79
2022/05/06 03:54:29;;;;;;;14.73;8.48;;;;;;;14.61;68.24;100525.75;4953688;28;20043;-81
2022/05/06 03:56:56;;;;;;;14.55;8.52;;;;;;;14.64;68.28;100523.63;4955822;28;20443;-80
2022/05/06 03:59:24;;;;;;;12.43;7.93;;;;;;;14.58;68.56;100521.53;4983340;28;20502;-80
2022/05/06 04:02:01;;;;;;;15.10;8.52;;;;;;;14.53;68.47;100516.63;4944014;28;20055;-77
2022/05/06 04:04:31;;;;;;;17.67;8.77;;;;;;;14.52;68.54;100522.91;4967291;28;20407;-78
2022/05/06 04:07:02;;;;;;;14.18;7.30;;;;;;;14.49;68.50;100528.53;4963404;28;20047;-80
2022/05/06 04:09:32;;;;;;;13.50;7.60;;;;;;;14.49;68.66;100527.69;4945176;28;20088;-77
2022/05/06 04:11:59;;;;;;;19.92;7.60;;;;;;;14.45;68.66;100524.50;4957967;28;20543;-79
2022/05/06 04:14:31;;;;;;;16.00;7.95;;;;;;;14.44;68.62;100529.97;4950109;28;20387;-78
2022/05/06 04:16:58;;;;;;;14.13;7.97;;;;;;;14.43;68.74;100533.63;4960657;28;20046;-79
2022/05/06 04:23:41;;;;;;;12.75;7.82;;;;;;;14.39;68.75;100540.25;4969650;28;20486;-77
2022/05/06 04:26:13;;;;;;;15.95;7.38;;;;;;;14.37;68.69;100548.38;4981275;28;20054;-79
2022/05/06 04:28:48;;;;;;;17.05;8.18;;;;;;;14.34;68.96;100552.19;4962782;28;20493;-77
2022/05/06 04:31:17;;;;;;;21.67;8.18;;;;;;;14.34;69.08;100548.69;4977419;28;20053;-78
2022/05/06 04:33:45;;;;;;;10.50;7.25;;;;;;;14.38;69.02;100554.59;4972470;28;20046;-78
2022/05/06 04:36:25;;;;;;;11.07;7.78;;;;;;;14.37;69.14;100559.06;4977300;28;20054;-78
2022/05/06 04:38:55;;;;;;;13.57;8.20;;;;;;;14.35;68.95;100555.72;5000321;28;20449;-78
2022/05/06 04:41:23;;;;;;;15.98;8.27;;;;;;;14.36;69.22;100557.41;4960721;28;20093;-77
2022/05/06 04:43:50;;;;;;;13.55;9.38;;;;;;;14.37;69.39;100567.09;4952431;28;20054;-77
2022/05/06 04:46:19;;;;;;;13.60;8.45;;;;;;;14.38;69.16;100568.78;4968450;28;20041;-78
2022/05/06 04:48:46;;;;;;;15.15;8.32;;;;;;;14.38;69.12;100562.63;4969246;28;20038;-78
2022/05/06 04:51:16;;;;;;;11.60;7.85;;;;;;;14.37;69.22;100567.09;4964786;28;20069;-78
2022/05/06 04:53:44;;;;;;;14.10;8.88;;;;;;;14.37;69.31;100572.44;4954113;28;20039;-78
2022/05/06 04:56:11;;;;;;;15.90;9.10;;;;;;;14.34;69.00;100570.88;4953981;28;20417;-78
2022/05/06 04:58:40;;;;;;;19.70;8.07;;;;;;;14.32;69.00;100570.22;4976614;28;20059;-78
2022/05/06 05:01:17;;;;;;;19.65;8.60;;;;;;;14.30;68.72;100571.34;4958776;28;20054;-78
2022/05/06 05:03:46;;;;;;;16.00;8.00;;;;;;;14.30;68.97;100582.03;4974062;28;20042;-77
2022/05/06 05:06:13;;;;;;;12.85;8.30;;;;;;;14.32;68.87;100580.03;4968456;28;20127;-78
2022/05/06 05:08:41;;;;;;;15.45;8.68;;;;;;;14.28;68.85;100582.16;4981050;28;20552;-78
2022/05/06 05:11:08;;;;;;;18.67;8.93;;;;;;;14.27;69.04;100583.16;4964351;28;20095;-78
2022/05/06 05:13:41;;;;;;;16.33;9.20;;;;;;;14.27;68.90;100587.63;4963844;28;20068;-78
2022/05/06 05:16:16;;;;;;;18.17;9.35;;;;;;;14.22;69.13;100592.53;4951743;28;20445;-77
2022/05/06 05:18:44;;;;;;;14.10;9.57;;;;;;;14.21;69.20;100597.06;4964101;28;20046;-78
2022/05/06 05:21:11;;;;;;;17.02;9.93;;;;;;;14.19;69.40;100593.66;4970797;28;20458;-78
2022/05/06 05:23:40;;;;;;;17.65;9.32;;;;;;;14.20;69.31;100598.06;4967639;28;20049;-77
2022/05/06 05:26:07;;;;;;;15.55;9.40;;;;;;;14.17;69.44;100597.47;4953860;28;20095;-77
2022/05/06 05:28:36;;;;;;;18.85;9.27;;;;;;;14.19;69.72;100595.50;4983787;28;20497;-78
2022/05/06 05:31:04;;;;;;;20.27;9.60;;;;;;;14.24;69.68;100601.28;4969330;28;20050;-78
2022/05/06 05:33:34;;;;;;;14.10;8.60;;;;;;;14.22;69.68;100601.44;4967490;28;20042;-78
2022/05/06 05:36:01;;;;;;;14.02;8.15;;;;;;;14.23;69.74;100607.59;4966673;28;20073;-78
2022/05/06 05:38:29;;;;;;;24.35;9.48;;;;;;;14.28;69.86;100608.03;4972496;28;20038;-78
2022/05/06 05:40:56;;;;;;;17.13;8.75;;;;;;;14.28;69.68;100608.03;4981366;28;20038;-77
2022/05/06 05:48:59;;;;;;;16.00;8.90;;;;;;;14.24;69.93;100606.63;4963871;28;20045;-78
2022/05/06 05:51:28;;;;;;;15.98;9.23;;;;;;;14.26;70.00;100604.66;4968168;28;20078;-78
2022/05/06 05:53:58;;;;;;;27.63;10.70;;;;;;;14.27;70.18;100611.66;4959868;28;20055;-77
2022/05/06 05:56:29;;;;;;;17.38;9.80;;;;;;;14.23;70.40;100611.13;4967408;28;20046;-78
2022/05/06 05:58:57;;;;;;;18.00;10.18;;;;;;;14.27;70.43;100612.53;4998970;28;20046;-78
2022/05/06 06:01:24;;;;;;;12.90;8.18;;;;;;;14.32;70.40;100617.44;4986048;28;20508;-78
2022/05/06 06:03:55;;;;;;;19.63;9.60;;;;;;;14.34;70.60;100618.97;4968806;28;20046;-77
2022/05/06 06:06:23;;;;;;;16.63;10.07;;;;;;;14.35;70.87;100614.50;4966495;28;20122;-78
2022/05/06 06:08:52;;;;;;;19.58;9.55;;;;;;;14.42;70.84;100618.28;4970103;28;20120;-77
2022/05/06 06:11:19;;;;;;;17.88;9.32;;;;;;;14.44;70.97;100610.97;4969599;28;20049;-78
2022/05/06 06:13:49;;;;;;;24.17;10.27;;;;;;;14.47;71.19;100609.84;4975458;28;20046;-78
2022/05/06 06:16:20;;;;;;;20.52;10.27;;;;;;;14.50;71.46;100604.19;4989474;28;20442;-78
2022/05/06 06:18:48;;;;;;;18.73;8.95;;;;;;;14.54;71.49;100605.66;4936709;28;20090;-79
2022/05/06 06:21:17;;;;;;;16.38;8.32;;;;;;;14.58;71.19;100608.88;4988461;28;20041;-79
2022/05/06 06:23:47;;;;;;;17.35;8.75;;;;;;;14.59;70.17;100606.06;4974190;28;20054;-78
2022/05/06 06:26:14;;;;;;;26.65;8.35;;;;;;;14.68;69.94;100607.88;4985499;28;20046;-78
2022/05/06 06:28:41;;;;;;;19.73;8.77;;;;;;;14.67;69.63;100606.19;4983105;28;20058;-78
2022/05/06 06:31:12;;;;;;;17.67;8.88;;;;;;;14.75;69.42;100611.66;4986368;28;20125;-78
2022/05/06 06:33:40;;;;;;;14.63;8.70;;;;;;;14.83;69.73;100610.09;4956290;28;20042;-78
2022/05/06 06:36:13;;;;;;;20.45;8.82;;;;;;;14.85;70.00;100608.13;4969683;28;20042;-78
2022/05/06 06:38:40;;;;;;;18.90;9.80;;;;;;;14.91;69.43;100611.06;4990952;28;20054;-79
2022/05/06 06:41:09;;;;;;;16.73;9.52;;;;;;;14.90;69.40;100606.69;4970430;28;20512;-78
2022/05/06 06:43:40;;;;;;;15.93;8.48;;;;;;;15.03;68.92;100608.22;4982694;28;21180;-78
2022/05/06 06:46:20;;;;;;;19.83;9.27;;;;;;;15.07;68.54;100612.28;4940970;28;20100;-78
2022/05/06 06:49:13;;;;;;;18.30;8.48;;;;;;;15.10;68.91;100612.84;4942952;28;20050;-78
2022/05/06 06:52:23;;;;;;;21.95;7.88;;;;;;;15.14;68.88;100610.72;4911992;28;20133;-78
2022/05/06 06:54:50;;;;;;;13.15;6.55;;;;;;;15.07;66.86;100609.63;4987924;28;20046;-78
2022/05/06 06:57:17;;;;;;;9.10;5.82;;;;;;;15.02;65.52;100615.41;4968475;28;20046;-78
2022/05/06 06:59:43;;;;;;;14.43;6.22;;;;;;;15.03;64.50;100618.91;4968248;28;20486;-79
2022/05/06 07:02:10;;;;;;;12.15;5.53;;;;;;;14.95;64.46;100617.81;4986086;28;20068;-78
2022/05/06 07:04:37;;;;;;;11.45;6.35;;;;;;;14.80;63.86;100616.56;4987184;28;20046;-78
2022/05/06 07:12:34;;;;;;;16.95;6.72;;;;;;;15.09;63.50;100618.34;4923834;28;20061;-78
2022/05/06 07:15:02;;;;;;;12.43;5.88;;;;;;;15.19;63.98;100613.81;4986720;28;20122;-78
2022/05/06 07:17:29;;;;;;;10.25;6.38;;;;;;;15.11;62.80;100622.56;4981540;28;20512;-78
2022/05/06 07:19:56;;;;;;;10.10;5.60;;;;;;;15.20;62.96;100623.50;5002709;28;20058;-78
2022/05/06 07:22:25;;;;;;;10.43;5.40;;;;;;;15.38;62.60;100621.75;4969958;28;20042;-78
2022/05/06 07:24:53;;;;;;;7.10;5.38;;;;;;;15.32;63.02;100625.03;5002616;28;20061;-78
2022/05/06 07:27:21;;;;;;;10.10;5.45;;;;;;;15.32;62.25;100622.34;4995786;28;20046;-78
2022/05/06 07:29:48;;;;;;;14.13;6.05;;;;;;;15.44;61.92;100617.63;4984730;28;20117;-78
2022/05/06 07:32:15;;;;;;;11.07;5.55;;;;;;;15.43;62.27;100626.66;5003509;28;20129;-78
2022/05/06 07:34:42;;;;;;;11.55;5.38;;;;;;;15.47;62.50;100625.38;4966746;28;20045;-78
2022/05/06 07:37:09;;;;;;;18.08;5.70;;;;;;;15.39;61.96;100620.78;4977313;28;20039;-78
2022/05/06 07:39:35;;;;;;;10.52;5.00;;;;;;;15.46;61.96;100622.84;5003010;28;20046;-78
2022/05/06 07:42:02;;;;;;;11.68;4.60;;;;;;;15.43;61.30;100623.16;4964940;28;20073;-78
2022/05/06 07:44:29;;;;;;;7.28;4.60;;;;;;;15.52;60.98;100615.06;5000611;28;20047;-79
2022/05/06 07:46:56;;;;;;;11.02;4.68;;;;;;;15.50;61.09;100618.88;4981436;28;20055;-78
2022/05/06 07:49:23;;;;;;;8.05;5.43;;;;;;;15.50;60.78;100621.56;4970279;28;20410;-78
2022/05/06 07:51:50;;;;;;;8.70;4.85;;;;;;;15.62;60.72;100615.00;4969936;28;20046;-79
2022/05/06 07:54:17;;;;;;;8.98;4.47;;;;;;;15.53;59.60;100626.63;4988437;28;20069;-78
2022/05/06 07:56:44;;;;;;;11.50;4.50;;;;;;;15.58;59.29;100618.97;4969204;28;20046;-78
2022/05/06 07:59:11;;;;;;;11.90;4.15;;;;;;;15.60;59.08;100623.19;4971039;28;20044;-79
2022/05/06 08:04:34;;;;;;;10.10;4.35;;;;;;;15.70;57.51;100619.63;4985527;28;20097;-78
2022/05/06 08:07:01;;;;;;;11.35;3.33;;;;;;;15.68;56.64;100621.59;4970036;28;20133;-78
2022/05/06 08:09:28;;;;;;;7.85;4.25;;;;;;;15.68;58.31;100621.59;4966235;28;20506;-78
2022/05/06 08:11:55;;;;;;;6.25;3.50;;;;;;;15.80;57.50;100620.44;4966592;28;20053;-78
2022/05/06 08:14:22;;;;;;;7.68;3.58;;;;;;;15.89;57.90;100619.53;4969519;28;20038;-78
2022/05/06 08:16:50;;;;;;;7.50;3.63;;;;;;;15.83;57.19;100623.66;4981566;28;20477;-78
2022/05/06 08:19:18;;;;;;;8.10;4.25;;;;;;;15.89;57.24;100629.41;4985092;28;20048;-78
2022/05/06 08:21:49;;;;;;;9.88;4.50;;;;;;;15.87;55.45;100631.38;4983929;28;20038;-78
2022/05/06 08:24:16;;;;;;;9.43;4.15;;;;;;;15.92;52.52;100635.28;4988256;28;20066;-78
2022/05/06 08:26:43;;;;;;;6.70;4.30;;;;;;;16.01;54.05;100628.19;4985042;28;20682;-78
2022/05/06 08:29:10;;;;;;;6.25;3.55;;;;;;;16.07;53.41;100640.97;4964242;28;20038;-78
2022/05/06 08:31:37;;;;;;;7.55;3.47;;;;;;;16.02;53.31;100625.34;4973078;28;20056;-78
2022/05/06 08:34:10;;;;;;;6.32;3.45;;;;;;;15.88;52.34;100623.22;4949928;28;20057;-78
2022/05/06 08:36:42;;;;;;;6.18;3.53;;;;;;;16.02;53.56;100627.19;4966282;28;20385;-78
2022/05/06 08:39:12;;;;;;;8.23;3.50;;;;;;;16.00;52.04;100627.38;4964870;28;20099;-78
2022/05/06 08:41:40;;;;;;;10.18;3.05;;;;;;;16.03;50.79;100624.38;4949561;28;20489;-78
2022/05/06 08:52:35;;;;;;;3.58;2.42;;;;;;;16.21;49.49;100637.78;4957974;28;20062;-79
2022/05/06 08:55:03;;;;;;;8.45;2.63;;;;;;;16.27;50.80;100633.63;4980281;28;20129;-79
2022/05/06 08:57:31;;;;;;;5.00;2.95;;;;;;;16.25;50.48;100633.78;4968153;28;20047;-78
2022/05/06 08:59:57;;;;;;;5.82;2.40;;;;;;;16.27;49.50;100636.31;4965989;28;20054;-78
2022/05/06 09:02:26;;;;;;;7.05;2.78;;;;;;;16.34;50.94;100633.88;4984427;28;20049;-78
2022/05/06 09:04:53;;;;;;;4.25;2.28;;;;;;;16.39;50.61;100635.09;4963093;28;20553;-78
2022/05/06 09:07:22;;;;;;;3.25;2.50;;;;;;;16.46;50.46;100638.00;4970836;28;20505;-79
2022/05/06 09:10:14;;;;;;;6.85;2.38;;;;;;;16.44;48.07;100637.31;4960368;28;20042;-78
2022/05/06 09:12:42;;;;;;;6.68;2.40;;;;;;;16.50;51.18;100640.22;4936082;28;20480;-78
2022/05/06 09:18:04;;;;;;;8.73;2.40;;;;;;;16.58;50.20;100644.81;4946106;28;20058;-79
2022/05/06 09:20:32;;;;;;;3.47;2.17;;;;;;;16.50;49.94;100634.00;4985674;28;20048;-78
2022/05/06 09:23:00;;;;;;;8.68;2.80;;;;;;;16.55;49.04;100652.31;4949505;28;20046;-78
2022/05/06 09:25:38;;;;;;;2.65;2.13;;;;;;;16.55;48.28;100644.28;4987144;28;20036;-78
2022/05/06 09:28:07;;;;;;;5.57;2.08;;;;;;;16.63;47.46;100647.03;4973070;28;20085;-79
2022/05/06 09:30:34;;;;;;;5.82;2.70;;;;;;;16.55;47.29;100644.28;4983130;28;20046;-79
2022/05/06 09:33:01;;;;;;;7.30;3.17;;;;;;;16.62;47.33;100648.03;4968540;28;20061;-79
2022/05/06 09:35:31;;;;;;;4.63;2.20;;;;;;;16.73;48.24;100642.41;5004038;28;20043;-79
2022/05/06 09:38:02;;;;;;;3.53;2.53;;;;;;;16.78;47.18;100637.44;4962513;28;20038;-79
2022/05/06 09:40:30;;;;;;;4.82;2.22;;;;;;;16.75;49.19;100632.38;4980793;28;20042;-79
2022/05/06 09:42:59;;;;;;;7.45;2.45;;;;;;;16.82;47.36;100638.00;4986983;28;20049;-79
2022/05/06 09:45:42;;;;;;;7.07;2.53;;;;;;;16.78;46.57;100634.78;4946748;28;20383;-79
2022/05/06 09:48:12;;;;;;;4.28;2.47;;;;;;;16.82;47.11;100633.47;4992018;28;20070;-79
2022/05/06 09:50:47;;;;;;;3.10;2.08;;;;;;;16.68;47.43;100644.72;4968341;28;20060;-79
2022/05/06 09:53:21;;;;;;;6.83;2.37;;;;;;;16.78;48.29;100636.63;4950152;28;20046;-79
2022/05/06 09:55:49;;;;;;;6.07;2.40;;;;;;;16.77;48.62;100633.06;4981173;28;20509;-79
2022/05/06 09:58:17;;;;;;;7.63;2.78;;;;;;;16.82;47.91;100638.84;4987561;28;20045;-79
2022/05/06 10:00:44;;;;;;;4.70;2.20;;;;;;;16.98;48.32;100635.41;4989591;28;20039;-79
2022/05/06 10:03:11;;;;;;;6.38;2.42;;;;;;;16.98;46.82;100654.19;4968582;28;20048;-79
2022/05/06 10:05:38;;;;;;;4.18;1.95;;;;;;;16.99;46.12;100661.22;4985654;28;20054;-79
2022/05/06 10:08:12;;;;;;;5.32;2.30;;;;;;;16.74;43.21;100659.34;4973406;28;20038;-79
2022/05/06 10:10:45;;;;;;;3.72;2.17;;;;;;;16.85;44.70;100648.41;4987221;28;20048;-79
2022/05/06 10:13:16;;;;;;;3.22;1.90;;;;;;;16.90;46.11;100636.19;4953247;28;20501;-79
2022/05/06 10:15:47;;;;;;;4.05;1.80;;;;;;;16.94;44.07;100652.81;4986677;28;20056;-79
2022/05/06 10:18:37;;;;;;;11.02;2.17;;;;;;;16.75;42.19;100640.41;4986662;28;20801;-79
2022/05/06 10:21:08;;;;;;;2.60;1.90;;;;;;;16.97;45.95;100632.88;4970414;28;20053;-79
2022/05/06 10:23:54;;;;;;;4.30;2.38;;;;;;;16.92;43.71;100636.91;4970072;28;20072;-79
2022/05/06 10:26:42;;;;;;;5.68;2.22;;;;;;;16.98;45.12;100635.41;4977114;28;20050;-80
2022/05/06 10:35:05;;;;;;;4.07;2.58;;;;;;;16.95;47.06;100616.13;4960872;28;20425;-79
2022/05/06 10:37:37;;;;;;;3.55;2.17;;;;;;;17.07;47.47;100626.44;4938799;28;20058;-79
2022/05/06 10:40:31;;;;;;;3.38;2.17;;;;;;;17.06;45.61;100632.78;4983529;28;20047;-79
2022/05/06 10:42:58;;;;;;;8.35;2.35;;;;;;;17.19;46.67;100643.09;4956408;28;20042;-79
2022/05/06 10:45:30;;;;;;;6.38;2.55;;;;;;;17.18;45.93;100629.84;4984816;28;20512;-79
2022/05/06 10:47:58;;;;;;;7.95;2.75;;;;;;;17.24;46.34;100631.88;5003020;28;20053;-79
2022/05/06 10:50:29;;;;;;;4.85;2.05;;;;;;;17.27;44.95;100636.91;4980598;28;20513;-80
2022/05/06 10:52:57;;;;;;;6.90;2.35;;;;;;;17.26;45.42;100636.09;4986547;28;20125;-80
2022/05/06 10:55:25;;;;;;;4.15;2.22;;;;;;;17.38;45.91;100627.75;4969413;28;20046;-80
2022/05/06 10:58:00;;;;;;;4.90;2.08;;;;;;;17.26;45.38;100619.16;4967896;28;20050;-79
2022/05/06 11:00:29;;;;;;;5.63;2.63;;;;;;;17.19;46.31;100626.16;4934923;28;20466;-79
2022/05/06 11:02:58;;;;;;;6.80;2.08;;;;;;;17.33;45.13;100617.50;4966961;28;20182;-80
2022/05/06 11:05:27;;;;;;;5.55;2.55;;;;;;;17.37;46.40;100610.78;4984863;28;20123;-79
2022/05/06 11:07:56;;;;;;;2.55;2.10;;;;;;;17.34;46.72;100611.13;4974223;28;20050;-79
2022/05/06 11:10:25;;;;;;;5.72;2.30;;;;;;;17.27;46.03;100618.97;4969389;28;20042;-79
2022/05/06 11:12:54;;;;;;;8.77;2.15;;;;;;;17.29;44.95;100616.97;4966033;28;20122;-79
2022/05/06 11:15:31;;;;;;;2.80;2.08;;;;;;;17.06;42.50;100619.38;4967317;28;20053;-79
2022/05/06 11:18:04;;;;;;;5.72;2.22;;;;;;;17.26;45.28;100611.09;4950923;28;20061;-80
2022/05/06 11:20:32;;;;;;;6.75;2.50;;;;;;;17.36;46.79;100615.31;4969303;28;20038;-79
2022/05/06 11:23:03;;;;;;;6.53;2.47;;;;;;;17.30;45.71;100613.31;4978103;28;20050;-79
2022/05/06 11:25:34;;;;;;;8.70;2.60;;;;;;;17.23;45.05;100604.19;4983976;28;20042;-79
2022/05/06 11:28:04;;;;;;;8.43;2.75;;;;;;;17.32;45.56;100626.53;4981907;28;20054;-79
2022/05/06 11:30:32;;;;;;;5.85;2.90;;;;;;;17.38;45.94;100622.38;4986925;28;20057;-79
2022/05/06 11:33:02;;;;;;;5.57;2.97;;;;;;;17.31;44.66;100604.22;4965967;28;20062;-79
2022/05/06 11:35:32;;;;;;;4.57;2.50;;;;;;;17.36;45.09;100603.75;5001021;28;20108;-79
2022/05/06 11:38:00;;;;;;;9.43;3.45;;;;;;;17.43;45.72;100614.66;4966401;28;20046;-79
2022/05/06 11:40:35;;;;;;;3.83;2.20;;;;;;;17.36;45.00;100606.44;4951854;28;20387;-79
2022/05/06 11:43:07;;;;;;;5.30;2.67;;;;;;;17.39;45.25;100608.78;4969425;28;20050;-79
2022/05/06 11:48:23;;;;;;;6.47;3.08;;;;;;;17.50;45.14;100613.91;4951724;28;20608;-79
2022/05/06 11:50:55;;;;;;;5.72;2.90;;;;;;;17.54;45.07;100612.56;4968304;28;20050;-79
2022/05/06 11:53:26;;;;;;;9.40;3.20;;;;;;;17.58;45.44;100599.66;4952530;28;20046;-80
2022/05/06 11:55:54;;;;;;;12.07;3.50;;;;;;;17.60;45.14;100599.47;4968566;28;20544;-80
2022/05/06 11:58:23;;;;;;;6.45;2.67;;;;;;;17.64;45.65;100604.38;4985794;28;20042;-79
2022/05/06 12:00:52;;;;;;;4.57;2.50;;;;;;;17.71;45.50;100609.94;4969375;28;20524;-79
2022/05/06 12:03:20;;;;;;;4.05;3.08;;;;;;;17.69;45.25;100595.81;4952710;28;20042;-79
2022/05/06 12:06:05;;;;;;;5.28;2.67;;;;;;;17.74;46.10;100599.69;4984931;28;20046;-79
2022/05/06 12:08:34;;;;;;;7.22;2.65;;;;;;;17.77;45.58;100593.16;4949974;28;20480;-79
2022/05/06 12:11:04;;;;;;;7.68;2.97;;;;;;;17.82;44.53;100601.59;4975909;28;20043;-78
2022/05/06 12:13:36;;;;;;;5.32;3.65;;;;;;;17.79;44.78;100616.19;4972184;28;20053;-79
2022/05/06 12:16:13;;;;;;;5.28;3.08;;;;;;;17.67;44.60;100598.66;4968041;28;20042;-79
2022/05/06 12:18:52;;;;;;;4.55;3.17;;;;;;;17.77;43.91;100601.22;4938147;28;20038;-79